sensor_id;sensor_type;location;lat;lon;timestamp;pressure;altitude;pressure_sealevel;temperature;humidity
6599;BME280;3335;43.198;27.918;2022-12-18T00:00:46;150365.81;;;12.45;100.00
6599;BME280;3335;43.198;27.918;2022-12-18T00:03:14;150370.78;;;12.47;100.00
6599;BME280;3335;43.198;27.918;2022-12-18T00:05:50;150385.81;;;12.53;100.00
6599;BME280;3335;43.198;27.918;2022-12-18T00:08:18;150378.25;;;12.50;100.00
6599;BME280;3335;43.198;27.918;2022-12-18T00:10:45;150373.28;;;12.48;100.00
6599;BME280;3335;43.198;27.918;2022-12-18T00:13:12;150370.78;;;12.47;100.00
6599;BME280;3335;43.198;27.918;2022-12-18T00:15:41;150353.28;;;12.40;100.00
6599;BME280;3335;43.198;27.918;2022-12-18T00:18:08;150330.78;;;12.31;100.00
6599;BME280;3335;43.198;27.918;2022-12-18T00:20:39;150360.78;;;12.43;100.00
6599;BME280;3335;43.198;27.918;2022-12-18T00:23:06;150348.25;;;12.38;100.00
6599;BME280;3335;43.198;27.918;2022-12-18T00:25:34;150340.78;;;12.35;100.00
6599;BME280;3335;43.198;27.918;2022-12-18T00:28:01;150342.03;;;12.35;100.00
6599;BME280;3335;43.198;27.918;2022-12-18T00:30:28;150148.13;;;11.57;100.00
6599;BME280;3335;43.198;27.918;2022-12-18T00:32:57;150325.75;;;12.28;100.00
6599;BME280;3335;43.198;27.918;2022-12-18T00:35:24;150310.72;;;12.22;100.00
6599;BME280;3335;43.198;27.918;2022-12-18T00:37:51;150331.97;;;12.31;100.00
6599;BME280;3335;43.198;27.918;2022-12-18T00:40:18;150318.25;;;12.25;100.00
6599;BME280;3335;43.198;27.918;2022-12-18T00:42:45;150300.72;;;12.18;100.00
6599;BME280;3335;43.198;27.918;2022-12-18T00:45:25;150317.00;;;12.25;100.00
6599;BME280;3335;43.198;27.918;2022-12-18T00:47:53;150304.50;;;12.20;100.00
6599;BME280;3335;43.198;27.918;2022-12-18T00:50:22;150280.72;;;12.10;100.00
6599;BME280;3335;43.198;27.918;2022-12-18T00:52:50;150280.72;;;12.10;100.00
6599;BME280;3335;43.198;27.918;2022-12-18T00:55:17;150280.72;;;12.10;100.00
6599;BME280;3335;43.198;27.918;2022-12-18T00:57:44;150268.22;;;12.05;100.00
6599;BME280;3335;43.198;27.918;2022-12-18T01:00:13;150263.22;;;12.03;100.00
6599;BME280;3335;43.198;27.918;2022-12-18T01:02:42;150268.22;;;12.05;100.00
6599;BME280;3335;43.198;27.918;2022-12-18T01:05:10;150245.72;;;11.96;100.00
6599;BME280;3335;43.198;27.918;2022-12-18T01:07:39;150241.94;;;11.95;100.00
6599;BME280;3335;43.198;27.918;2022-12-18T01:10:07;150233.22;;;11.91;100.00
6599;BME280;3335;43.198;27.918;2022-12-18T01:12:34;150226.94;;;11.89;100.00
6599;BME280;3335;43.198;27.918;2022-12-18T01:15:01;150218.19;;;11.85;100.00
6599;BME280;3335;43.198;27.918;2022-12-18T01:17:28;150203.19;;;11.79;100.00
6599;BME280;3335;43.198;27.918;2022-12-18T01:19:55;150223.22;;;11.87;100.00
6599;BME280;3335;43.198;27.918;2022-12-18T01:22:22;150225.69;;;11.88;100.00
6599;BME280;3335;43.198;27.918;2022-12-18T01:24:50;150218.19;;;11.85;100.00
6599;BME280;3335;43.198;27.918;2022-12-18T01:27:17;150225.69;;;11.88;100.00
6599;BME280;3335;43.198;27.918;2022-12-18T01:29:44;150245.72;;;11.96;100.00
6599;BME280;3335;43.198;27.918;2022-12-18T01:32:11;150228.19;;;11.89;100.00
6599;BME280;3335;43.198;27.918;2022-12-18T01:34:38;150219.44;;;11.86;100.00
6599;BME280;3335;43.198;27.918;2022-12-18T01:37:05;150215.69;;;11.84;100.00
6599;BME280;3335;43.198;27.918;2022-12-18T01:39:32;150233.22;;;11.91;100.00
6599;BME280;3335;43.198;27.918;2022-12-18T01:42:02;150225.69;;;11.88;100.00
6599;BME280;3335;43.198;27.918;2022-12-18T01:44:56;150230.69;;;11.90;100.00
6599;BME280;3335;43.198;27.918;2022-12-18T01:47:26;150178.16;;;11.69;100.00
6599;BME280;3335;43.198;27.918;2022-12-18T01:49:55;150228.19;;;11.89;100.00
6599;BME280;3335;43.198;27.918;2022-12-18T01:52:24;150225.69;;;11.88;100.00
6599;BME280;3335;43.198;27.918;2022-12-18T01:54:52;150218.19;;;11.85;100.00
6599;BME280;3335;43.198;27.918;2022-12-18T01:57:22;150210.72;;;11.82;100.00
6599;BME280;3335;43.198;27.918;2022-12-18T01:59:52;150200.72;;;11.78;100.00
6599;BME280;3335;43.198;27.918;2022-12-18T02:02:20;150198.19;;;11.77;100.00
6599;BME280;3335;43.198;27.918;2022-12-18T02:04:47;150203.19;;;11.79;100.00
6599;BME280;3335;43.198;27.918;2022-12-18T02:07:19;150161.91;;;11.62;100.00
6599;BME280;3335;43.198;27.918;2022-12-18T02:09:54;150165.66;;;11.64;100.00
6599;BME280;3335;43.198;27.918;2022-12-18T02:12:33;150183.13;;;11.71;100.00
6599;BME280;3335;43.198;27.918;2022-12-18T02:15:06;150135.63;;;11.52;100.00
6599;BME280;3335;43.198;27.918;2022-12-18T02:17:39;150155.63;;;11.60;100.00
6599;BME280;3335;43.198;27.918;2022-12-18T02:20:14;150153.16;;;11.59;100.00
6599;BME280;3335;43.198;27.918;2022-12-18T02:22:54;150106.91;;;11.40;100.00
6599;BME280;3335;43.198;27.918;2022-12-18T02:25:33;150153.16;;;11.59;100.00
6599;BME280;3335;43.198;27.918;2022-12-18T02:28:09;150153.16;;;11.59;100.00
6599;BME280;3335;43.198;27.918;2022-12-18T02:30:39;150158.13;;;11.61;100.00
6599;BME280;3335;43.198;27.918;2022-12-18T02:33:08;150159.38;;;11.61;100.00
6599;BME280;3335;43.198;27.918;2022-12-18T02:35:39;150131.88;;;11.50;100.00
6599;BME280;3335;43.198;27.918;2022-12-18T02:38:07;150163.16;;;11.63;100.00
6599;BME280;3335;43.198;27.918;2022-12-18T02:40:34;150155.63;;;11.60;100.00
6599;BME280;3335;43.198;27.918;2022-12-18T02:43:08;149983.16;;;10.90;100.00
6599;BME280;3335;43.198;27.918;2022-12-18T02:45:35;150133.13;;;11.51;100.00
6599;BME280;3335;43.198;27.918;2022-12-18T02:48:03;150140.66;;;11.54;100.00
6599;BME280;3335;43.198;27.918;2022-12-18T02:50:35;150099.38;;;11.37;100.00
6599;BME280;3335;43.198;27.918;2022-12-18T02:53:10;150089.38;;;11.33;100.00
6599;BME280;3335;43.198;27.918;2022-12-18T02:55:52;150118.16;;;11.45;100.00
6599;BME280;3335;43.198;27.918;2022-12-18T02:58:32;150108.13;;;11.40;100.00
6599;BME280;3335;43.198;27.918;2022-12-18T03:01:05;150085.63;;;11.31;100.00
6599;BME280;3335;43.198;27.918;2022-12-18T03:03:39;150086.88;;;11.32;100.00
6599;BME280;3335;43.198;27.918;2022-12-18T03:06:10;150086.88;;;11.32;100.00
6599;BME280;3335;43.198;27.918;2022-12-18T03:08:43;150075.63;;;11.27;100.00
6599;BME280;3335;43.198;27.918;2022-12-18T03:11:13;150075.63;;;11.27;100.00
6599;BME280;3335;43.198;27.918;2022-12-18T03:13:44;150041.88;;;11.14;100.00
6599;BME280;3335;43.198;27.918;2022-12-18T03:16:16;150060.66;;;11.21;100.00
6599;BME280;3335;43.198;27.918;2022-12-18T03:18:47;150048.16;;;11.16;100.00
6599;BME280;3335;43.198;27.918;2022-12-18T03:21:18;150045.66;;;11.15;100.00
6599;BME280;3335;43.198;27.918;2022-12-18T03:23:48;150045.66;;;11.15;100.00
6599;BME280;3335;43.198;27.918;2022-12-18T03:26:17;150031.91;;;11.10;100.00
6599;BME280;3335;43.198;27.918;2022-12-18T03:28:49;150023.16;;;11.06;100.00
6599;BME280;3335;43.198;27.918;2022-12-18T03:31:18;150013.16;;;11.02;100.00
6599;BME280;3335;43.198;27.918;2022-12-18T03:33:51;150021.91;;;11.06;100.00
6599;BME280;3335;43.198;27.918;2022-12-18T03:36:18;150000.69;;;10.97;100.00
6599;BME280;3335;43.198;27.918;2022-12-18T03:38:45;150013.16;;;11.02;100.00
6599;BME280;3335;43.198;27.918;2022-12-18T03:41:17;150003.13;;;10.98;100.00
6599;BME280;3335;43.198;27.918;2022-12-18T03:43:51;149878.22;;;10.47;100.00
6599;BME280;3335;43.198;27.918;2022-12-18T03:46:24;149988.19;;;10.92;100.00
6599;BME280;3335;43.198;27.918;2022-12-18T03:48:59;149983.16;;;10.90;100.00
6599;BME280;3335;43.198;27.918;2022-12-18T03:51:35;149990.63;;;10.93;100.00
6599;BME280;3335;43.198;27.918;2022-12-18T03:54:06;149980.66;;;10.89;100.00
6599;BME280;3335;43.198;27.918;2022-12-18T03:56:38;150001.94;;;10.98;100.00
6599;BME280;3335;43.198;27.918;2022-12-18T03:59:09;150013.16;;;11.02;100.00
6599;BME280;3335;43.198;27.918;2022-12-18T04:01:40;150005.66;;;10.99;100.00
6599;BME280;3335;43.198;27.918;2022-12-18T04:04:10;150018.16;;;11.04;100.00
6599;BME280;3335;43.198;27.918;2022-12-18T04:06:39;150021.91;;;11.06;100.00
6599;BME280;3335;43.198;27.918;2022-12-18T04:09:07;150023.16;;;11.06;100.00
6599;BME280;3335;43.198;27.918;2022-12-18T04:11:34;150026.88;;;11.08;100.00
6599;BME280;3335;43.198;27.918;2022-12-18T04:14:01;150038.13;;;11.12;100.00
6599;BME280;3335;43.198;27.918;2022-12-18T04:16:29;150023.16;;;11.06;100.00
6599;BME280;3335;43.198;27.918;2022-12-18T04:18:56;149845.75;;;10.34;100.00
6599;BME280;3335;43.198;27.918;2022-12-18T04:21:23;150038.13;;;11.12;100.00
6599;BME280;3335;43.198;27.918;2022-12-18T04:23:50;150056.91;;;11.20;100.00
6599;BME280;3335;43.198;27.918;2022-12-18T04:26:17;150046.91;;;11.16;100.00
6599;BME280;3335;43.198;27.918;2022-12-18T04:28:44;150035.66;;;11.11;100.00
6599;BME280;3335;43.198;27.918;2022-12-18T04:31:11;149995.66;;;10.95;100.00
6599;BME280;3335;43.198;27.918;2022-12-18T04:33:39;149998.16;;;10.96;100.00
6599;BME280;3335;43.198;27.918;2022-12-18T04:36:07;149963.19;;;10.82;100.00
6599;BME280;3335;43.198;27.918;2022-12-18T04:38:34;149940.69;;;10.73;100.00
6599;BME280;3335;43.198;27.918;2022-12-18T04:41:01;149935.69;;;10.71;100.00
6599;BME280;3335;43.198;27.918;2022-12-18T04:43:28;149908.19;;;10.60;100.00
6599;BME280;3335;43.198;27.918;2022-12-18T04:46:01;149893.22;;;10.53;100.00
6599;BME280;3335;43.198;27.918;2022-12-18T04:48:28;149885.69;;;10.50;100.00
6599;BME280;3335;43.198;27.918;2022-12-18T04:50:56;149854.47;;;10.38;100.00
6599;BME280;3335;43.198;27.918;2022-12-18T04:53:24;149819.50;;;10.24;100.00
6599;BME280;3335;43.198;27.918;2022-12-18T04:55:50;149808.28;;;10.19;100.00
6599;BME280;3335;43.198;27.918;2022-12-18T04:58:17;149785.75;;;10.10;100.00
6599;BME280;3335;43.198;27.918;2022-12-18T05:00:44;149778.28;;;10.07;100.00
6599;BME280;3335;43.198;27.918;2022-12-18T05:03:11;149773.25;;;10.05;100.00
6599;BME280;3335;43.198;27.918;2022-12-18T05:05:38;149745.78;;;9.94;100.00
6599;BME280;3335;43.198;27.918;2022-12-18T05:08:07;149749.53;;;9.95;100.00
6599;BME280;3335;43.198;27.918;2022-12-18T05:10:33;149745.78;;;9.94;100.00
6599;BME280;3335;43.198;27.918;2022-12-18T05:13:00;149693.38;;;9.73;100.00
6599;BME280;3335;43.198;27.918;2022-12-18T05:15:28;149728.31;;;9.87;100.00
6599;BME280;3335;43.198;27.918;2022-12-18T05:17:56;149738.31;;;9.91;100.00
6599;BME280;3335;43.198;27.918;2022-12-18T05:20:23;149739.56;;;9.91;100.00
6599;BME280;3335;43.198;27.918;2022-12-18T05:22:50;149734.53;;;9.89;100.00
6599;BME280;3335;43.198;27.918;2022-12-18T05:25:19;149717.09;;;9.82;100.00
6599;BME280;3335;43.198;27.918;2022-12-18T05:27:47;149725.81;;;9.86;100.00
6599;BME280;3335;43.198;27.918;2022-12-18T05:30:14;149713.34;;;9.81;100.00
6599;BME280;3335;43.198;27.918;2022-12-18T05:32:41;149675.88;;;9.65;100.00
6599;BME280;3335;43.198;27.918;2022-12-18T05:35:09;149640.91;;;9.51;100.00
6599;BME280;3335;43.198;27.918;2022-12-18T05:37:36;149640.91;;;9.51;100.00
6599;BME280;3335;43.198;27.918;2022-12-18T05:40:04;149613.50;;;9.40;100.00
6599;BME280;3335;43.198;27.918;2022-12-18T05:42:33;149598.50;;;9.34;100.00
6599;BME280;3335;43.198;27.918;2022-12-18T05:45:00;149573.53;;;9.24;100.00
6599;BME280;3335;43.198;27.918;2022-12-18T05:47:27;149561.06;;;9.19;100.00
6599;BME280;3335;43.198;27.918;2022-12-18T05:49:54;149514.88;;;9.00;100.00
6599;BME280;3335;43.198;27.918;2022-12-18T05:52:21;149503.66;;;8.96;100.00
6599;BME280;3335;43.198;27.918;2022-12-18T05:54:48;149568.53;;;9.22;100.00
6599;BME280;3335;43.198;27.918;2022-12-18T05:57:15;149568.53;;;9.22;100.00
6599;BME280;3335;43.198;27.918;2022-12-18T05:59:43;149568.53;;;9.22;100.00
6599;BME280;3335;43.198;27.918;2022-12-18T06:02:10;149542.34;;;9.11;100.00
6599;BME280;3335;43.198;27.918;2022-12-18T06:04:37;149551.06;;;9.15;100.00
6599;BME280;3335;43.198;27.918;2022-12-18T06:07:04;149527.38;;;9.05;100.00
6599;BME280;3335;43.198;27.918;2022-12-18T06:09:30;149528.63;;;9.06;100.00
6599;BME280;3335;43.198;27.918;2022-12-18T06:11:58;149508.66;;;8.98;100.00
6599;BME280;3335;43.198;27.918;2022-12-18T06:14:25;149447.53;;;8.73;100.00
6599;BME280;3335;43.198;27.918;2022-12-18T06:16:53;149413.84;;;8.59;100.00
6599;BME280;3335;43.198;27.918;2022-12-18T06:19:20;149438.81;;;8.69;100.00
6599;BME280;3335;43.198;27.918;2022-12-18T06:21:47;149446.28;;;8.72;100.00
6599;BME280;3335;43.198;27.918;2022-12-18T06:24:14;149436.31;;;8.68;100.00
6599;BME280;3335;43.198;27.918;2022-12-18T06:26:41;149422.56;;;8.63;100.00
6599;BME280;3335;43.198;27.918;2022-12-18T06:29:08;149348.97;;;8.33;100.00
6599;BME280;3335;43.198;27.918;2022-12-18T06:31:35;149393.88;;;8.51;100.00
6599;BME280;3335;43.198;27.918;2022-12-18T06:34:04;149391.41;;;8.50;100.00
6599;BME280;3335;43.198;27.918;2022-12-18T06:36:31;149376.44;;;8.44;100.00
6599;BME280;3335;43.198;27.918;2022-12-18T06:38:58;149391.41;;;8.50;100.00
6599;BME280;3335;43.198;27.918;2022-12-18T06:41:25;149381.38;;;8.46;100.00
6599;BME280;3335;43.198;27.918;2022-12-18T06:43:52;149383.91;;;8.47;100.00
6599;BME280;3335;43.198;27.918;2022-12-18T06:46:19;149403.88;;;8.55;100.00
6599;BME280;3335;43.198;27.918;2022-12-18T06:48:47;149398.88;;;8.53;100.00
6599;BME280;3335;43.198;27.918;2022-12-18T06:51:18;149412.59;;;8.59;100.00
6599;BME280;3335;43.198;27.918;2022-12-18T06:53:45;149413.84;;;8.59;100.00
6599;BME280;3335;43.198;27.918;2022-12-18T06:56:12;149413.84;;;8.59;100.00
6599;BME280;3335;43.198;27.918;2022-12-18T06:58:39;149365.22;;;8.40;100.00
6599;BME280;3335;43.198;27.918;2022-12-18T07:01:08;149378.94;;;8.45;100.00
6599;BME280;3335;43.198;27.918;2022-12-18T07:03:35;149373.94;;;8.43;100.00
6599;BME280;3335;43.198;27.918;2022-12-18T07:06:03;149383.91;;;8.47;100.00
6599;BME280;3335;43.198;27.918;2022-12-18T07:08:32;149380.19;;;8.46;100.00
6599;BME280;3335;43.198;27.918;2022-12-18T07:10:59;149390.16;;;8.50;100.00
6599;BME280;3335;43.198;27.918;2022-12-18T07:13:26;149373.94;;;8.43;100.00
6599;BME280;3335;43.198;27.918;2022-12-18T07:15:53;149352.72;;;8.34;100.00
6599;BME280;3335;43.198;27.918;2022-12-18T07:18:19;149341.50;;;8.30;100.00
6599;BME280;3335;43.198;27.918;2022-12-18T07:20:46;149366.47;;;8.40;100.00
6599;BME280;3335;43.198;27.918;2022-12-18T07:23:13;149354.00;;;8.35;100.00
6599;BME280;3335;43.198;27.918;2022-12-18T07:25:41;149297.84;;;8.12;100.00
6599;BME280;3335;43.198;27.918;2022-12-18T07:28:08;149323.97;;;8.23;100.00
6599;BME280;3335;43.198;27.918;2022-12-18T07:30:37;149342.75;;;8.30;100.00
6599;BME280;3335;43.198;27.918;2022-12-18T07:33:04;149347.72;;;8.32;100.00
6599;BME280;3335;43.198;27.918;2022-12-18T07:35:32;149361.44;;;8.38;100.00
6599;BME280;3335;43.198;27.918;2022-12-18T07:38:02;149361.44;;;8.38;100.00
6599;BME280;3335;43.198;27.918;2022-12-18T07:40:29;149371.41;;;8.42;100.00
6599;BME280;3335;43.198;27.918;2022-12-18T07:42:57;149338.97;;;8.29;100.00
6599;BME280;3335;43.198;27.918;2022-12-18T07:45:24;149335.19;;;8.27;100.00
6599;BME280;3335;43.198;27.918;2022-12-18T07:47:51;149304.03;;;8.15;100.00
6599;BME280;3335;43.198;27.918;2022-12-18T07:50:18;149333.94;;;8.27;100.00
6599;BME280;3335;43.198;27.918;2022-12-18T07:52:45;149317.78;;;8.20;100.00
6599;BME280;3335;43.198;27.918;2022-12-18T07:55:12;149331.50;;;8.26;100.00
6599;BME280;3335;43.198;27.918;2022-12-18T07:57:39;149350.22;;;8.33;100.00
6599;BME280;3335;43.198;27.918;2022-12-18T08:00:08;149330.25;;;8.25;100.00
6599;BME280;3335;43.198;27.918;2022-12-18T08:02:35;149315.25;;;8.19;100.00
6599;BME280;3335;43.198;27.918;2022-12-18T08:05:02;149304.03;;;8.15;100.00
6599;BME280;3335;43.198;27.918;2022-12-18T08:07:29;149286.59;;;8.08;100.00
6599;BME280;3335;43.198;27.918;2022-12-18T08:09:56;149231.72;;;7.85;100.00
6599;BME280;3335;43.198;27.918;2022-12-18T08:12:23;149287.81;;;8.08;100.00
6599;BME280;3335;43.198;27.918;2022-12-18T08:14:50;149267.88;;;8.00;100.00
6599;BME280;3335;43.198;27.918;2022-12-18T08:17:19;149137.00;;;7.47;100.00
6599;BME280;3335;43.198;27.918;2022-12-18T08:19:46;149264.13;;;7.99;100.00
6599;BME280;3335;43.198;27.918;2022-12-18T08:22:13;149323.97;;;8.23;100.00
6599;BME280;3335;43.198;27.918;2022-12-18T08:24:40;149329.00;;;8.25;100.00
6599;BME280;3335;43.198;27.918;2022-12-18T08:27:07;149356.50;;;8.36;100.00
6599;BME280;3335;43.198;27.918;2022-12-18T08:29:34;149266.63;;;8.00;100.00
6599;BME280;3335;43.198;27.918;2022-12-18T08:32:01;149340.25;;;8.29;100.00
6599;BME280;3335;43.198;27.918;2022-12-18T08:34:29;149358.94;;;8.37;100.00
6599;BME280;3335;43.198;27.918;2022-12-18T08:36:56;149357.69;;;8.37;100.00
6599;BME280;3335;43.198;27.918;2022-12-18T08:39:23;149386.41;;;8.48;100.00
6599;BME280;3335;43.198;27.918;2022-12-18T08:41:50;149347.72;;;8.32;100.00
6599;BME280;3335;43.198;27.918;2022-12-18T08:44:31;149348.97;;;8.33;100.00
6599;BME280;3335;43.198;27.918;2022-12-18T08:47:04;149336.44;;;8.28;100.00
6599;BME280;3335;43.198;27.918;2022-12-18T08:49:32;149281.59;;;8.06;100.00
6599;BME280;3335;43.198;27.918;2022-12-18T08:52:00;149310.25;;;8.17;100.00
6599;BME280;3335;43.198;27.918;2022-12-18T08:54:28;149309.06;;;8.17;100.00
6599;BME280;3335;43.198;27.918;2022-12-18T08:56:55;149327.75;;;8.24;100.00
6599;BME280;3335;43.198;27.918;2022-12-18T08:59:22;149316.50;;;8.20;100.00
6599;BME280;3335;43.198;27.918;2022-12-18T09:01:49;149226.75;;;7.83;100.00
6599;BME280;3335;43.198;27.918;2022-12-18T09:04:17;149286.59;;;8.08;100.00
6599;BME280;3335;43.198;27.918;2022-12-18T09:06:46;149307.78;;;8.16;100.00
6599;BME280;3335;43.198;27.918;2022-12-18T09:09:13;149287.81;;;8.08;100.00
6599;BME280;3335;43.198;27.918;2022-12-18T09:11:40;149291.56;;;8.10;100.00
6599;BME280;3335;43.198;27.918;2022-12-18T09:14:08;149290.31;;;8.09;100.00
6599;BME280;3335;43.198;27.918;2022-12-18T09:16:36;149281.59;;;8.06;100.00
6599;BME280;3335;43.198;27.918;2022-12-18T09:19:04;149287.81;;;8.08;100.00
6599;BME280;3335;43.198;27.918;2022-12-18T09:21:33;149311.50;;;8.18;100.00
6599;BME280;3335;43.198;27.918;2022-12-18T09:24:01;149307.78;;;8.16;100.00
6599;BME280;3335;43.198;27.918;2022-12-18T09:26:28;149309.06;;;8.17;100.00
6599;BME280;3335;43.198;27.918;2022-12-18T09:28:55;149306.56;;;8.16;100.00
6599;BME280;3335;43.198;27.918;2022-12-18T09:31:24;149321.53;;;8.22;100.00
6599;BME280;3335;43.198;27.918;2022-12-18T09:33:51;149314.00;;;8.19;100.00
6599;BME280;3335;43.198;27.918;2022-12-18T09:36:18;149291.56;;;8.10;100.00
6599;BME280;3335;43.198;27.918;2022-12-18T09:38:45;149316.50;;;8.20;100.00
6599;BME280;3335;43.198;27.918;2022-12-18T09:41:33;149336.44;;;8.28;100.00
6599;BME280;3335;43.198;27.918;2022-12-18T09:44:11;149331.50;;;8.26;100.00
6599;BME280;3335;43.198;27.918;2022-12-18T09:46:44;149338.97;;;8.29;100.00
6599;BME280;3335;43.198;27.918;2022-12-18T09:49:14;149332.75;;;8.26;100.00
6599;BME280;3335;43.198;27.918;2022-12-18T09:51:45;149358.94;;;8.37;100.00
6599;BME280;3335;43.198;27.918;2022-12-18T09:54:18;149348.97;;;8.33;100.00
6599;BME280;3335;43.198;27.918;2022-12-18T09:56:48;149344.00;;;8.31;100.00
6599;BME280;3335;43.198;27.918;2022-12-18T09:59:21;149354.00;;;8.35;100.00
6599;BME280;3335;43.198;27.918;2022-12-18T10:01:50;149383.91;;;8.47;100.00
6599;BME280;3335;43.198;27.918;2022-12-18T10:04:17;149411.34;;;8.58;100.00
6599;BME280;3335;43.198;27.918;2022-12-18T10:06:48;149411.34;;;8.58;100.00
6599;BME280;3335;43.198;27.918;2022-12-18T10:09:25;149401.38;;;8.54;100.00
6599;BME280;3335;43.198;27.918;2022-12-18T10:12:01;149418.81;;;8.61;100.00
6599;BME280;3335;43.198;27.918;2022-12-18T10:14:35;149420.06;;;8.62;100.00
6599;BME280;3335;43.198;27.918;2022-12-18T10:17:11;149418.81;;;8.61;100.00
6599;BME280;3335;43.198;27.918;2022-12-18T10:19:42;149413.84;;;8.59;100.00
6599;BME280;3335;43.198;27.918;2022-12-18T10:25:06;149442.53;;;8.71;100.00
6599;BME280;3335;43.198;27.918;2022-12-18T10:27:42;149413.84;;;8.59;100.00
6599;BME280;3335;43.198;27.918;2022-12-18T10:30:13;149446.28;;;8.72;100.00
6599;BME280;3335;43.198;27.918;2022-12-18T10:32:41;149428.78;;;8.65;100.00
6599;BME280;3335;43.198;27.918;2022-12-18T10:35:16;149473.72;;;8.84;100.00
6599;BME280;3335;43.198;27.918;2022-12-18T10:38:00;149491.19;;;8.91;100.00
6599;BME280;3335;43.198;27.918;2022-12-18T10:40:27;149486.16;;;8.89;100.00
6599;BME280;3335;43.198;27.918;2022-12-18T10:43:05;149466.22;;;8.81;100.00
6599;BME280;3335;43.198;27.918;2022-12-18T10:45:32;149498.66;;;8.94;100.00
6599;BME280;3335;43.198;27.918;2022-12-18T10:48:00;149461.25;;;8.78;100.00
6599;BME280;3335;43.198;27.918;2022-12-18T10:50:30;149493.69;;;8.92;100.00
6599;BME280;3335;43.198;27.918;2022-12-18T10:52:59;149498.66;;;8.94;100.00
6599;BME280;3335;43.198;27.918;2022-12-18T10:55:31;149553.56;;;9.16;100.00
6599;BME280;3335;43.198;27.918;2022-12-18T10:58:21;149544.81;;;9.12;100.00
6599;BME280;3335;43.198;27.918;2022-12-18T11:01:03;149630.94;;;9.47;100.00
6599;BME280;3335;43.198;27.918;2022-12-18T11:03:32;149588.53;;;9.30;100.00
6599;BME280;3335;43.198;27.918;2022-12-18T11:06:09;149658.41;;;9.58;100.00
6599;BME280;3335;43.198;27.918;2022-12-18T11:08:36;149581.00;;;9.27;100.00
6599;BME280;3335;43.198;27.918;2022-12-18T11:11:07;149648.44;;;9.54;100.00
6599;BME280;3335;43.198;27.918;2022-12-18T11:13:55;149593.47;;;9.32;100.00
6599;BME280;3335;43.198;27.918;2022-12-18T11:16:25;149591.03;;;9.31;100.00
6599;BME280;3335;43.198;27.918;2022-12-18T11:18:53;149569.78;;;9.22;100.00
6599;BME280;3335;43.198;27.918;2022-12-18T11:21:20;149581.00;;;9.27;100.00
6599;BME280;3335;43.198;27.918;2022-12-18T11:23:49;149537.34;;;9.09;100.00
6599;BME280;3335;43.198;27.918;2022-12-18T11:26:17;149518.63;;;9.02;100.00
6599;BME280;3335;43.198;27.918;2022-12-18T11:28:47;149528.63;;;9.06;100.00
6599;BME280;3335;43.198;27.918;2022-12-18T11:31:21;149523.59;;;9.04;100.00
6599;BME280;3335;43.198;27.918;2022-12-18T11:33:55;149518.63;;;9.02;100.00
6599;BME280;3335;43.198;27.918;2022-12-18T11:36:25;149506.16;;;8.97;100.00
6599;BME280;3335;43.198;27.918;2022-12-18T11:38:54;149330.25;;;8.25;100.00
6599;BME280;3335;43.198;27.918;2022-12-18T11:41:27;149473.72;;;8.84;100.00
6599;BME280;3335;43.198;27.918;2022-12-18T11:44:11;149508.66;;;8.98;100.00
6599;BME280;3335;43.198;27.918;2022-12-18T11:46:46;149536.09;;;9.09;100.00
6599;BME280;3335;43.198;27.918;2022-12-18T11:49:18;149532.38;;;9.07;100.00
6599;BME280;3335;43.198;27.918;2022-12-18T11:51:50;149557.28;;;9.17;100.00
6599;BME280;3335;43.198;27.918;2022-12-18T11:54:19;149513.63;;;9.00;100.00
6599;BME280;3335;43.198;27.918;2022-12-18T11:56:49;149486.16;;;8.89;100.00
6599;BME280;3335;43.198;27.918;2022-12-18T11:59:27;149518.63;;;9.02;100.00
6599;BME280;3335;43.198;27.918;2022-12-18T12:02:09;149509.88;;;8.98;100.00
6599;BME280;3335;43.198;27.918;2022-12-18T12:04:47;149536.09;;;9.09;100.00
6599;BME280;3335;43.198;27.918;2022-12-18T12:07:28;149523.59;;;9.04;100.00
6599;BME280;3335;43.198;27.918;2022-12-18T12:10:09;149521.09;;;9.03;100.00
6599;BME280;3335;43.198;27.918;2022-12-18T12:12:55;149541.09;;;9.11;100.00
6599;BME280;3335;43.198;27.918;2022-12-18T12:15:33;149552.31;;;9.15;100.00
6599;BME280;3335;43.198;27.918;2022-12-18T12:18:08;149551.06;;;9.15;100.00
6599;BME280;3335;43.198;27.918;2022-12-18T12:20:47;149561.06;;;9.19;100.00
6599;BME280;3335;43.198;27.918;2022-12-18T12:23:23;149386.41;;;8.48;100.00
6599;BME280;3335;43.198;27.918;2022-12-18T12:26:01;149582.25;;;9.28;100.00
6599;BME280;3335;43.198;27.918;2022-12-18T12:31:36;149556.09;;;9.17;100.00
6599;BME280;3335;43.198;27.918;2022-12-18T12:34:15;149511.13;;;8.99;100.00
6599;BME280;3335;43.198;27.918;2022-12-18T12:36:53;149541.09;;;9.11;100.00
6599;BME280;3335;43.198;27.918;2022-12-18T12:39:30;149556.09;;;9.17;100.00
6599;BME280;3335;43.198;27.918;2022-12-18T12:41:58;149551.06;;;9.15;100.00
6599;BME280;3335;43.198;27.918;2022-12-18T12:44:45;149365.22;;;8.40;100.00
6599;BME280;3335;43.198;27.918;2022-12-18T12:47:19;149548.56;;;9.14;100.00
6599;BME280;3335;43.198;27.918;2022-12-18T12:49:47;149501.16;;;8.95;100.00
6599;BME280;3335;43.198;27.918;2022-12-18T12:52:20;149527.38;;;9.05;100.00
6599;BME280;3335;43.198;27.918;2022-12-18T12:54:52;149531.13;;;9.07;100.00
6599;BME280;3335;43.198;27.918;2022-12-18T12:57:21;149533.59;;;9.08;100.00
6599;BME280;3335;43.198;27.918;2022-12-18T13:00:01;149499.91;;;8.94;100.00
6599;BME280;3335;43.198;27.918;2022-12-18T13:02:34;149474.94;;;8.84;100.00
6599;BME280;3335;43.198;27.918;2022-12-18T13:05:09;149478.69;;;8.86;100.00
6599;BME280;3335;43.198;27.918;2022-12-18T13:07:41;149482.47;;;8.87;100.00
6599;BME280;3335;43.198;27.918;2022-12-18T13:10:33;149481.22;;;8.87;100.00
6599;BME280;3335;43.198;27.918;2022-12-18T13:13:02;149471.22;;;8.83;100.00
6599;BME280;3335;43.198;27.918;2022-12-18T13:15:33;149443.78;;;8.71;100.00